createdAt,value
2023-08-10T02:09:26.776Z,18.88
2023-08-10T02:11:55.986Z,20.45
2023-08-10T02:14:22.607Z,19.77
2023-08-10T02:16:49.176Z,21.02
2023-08-10T02:19:16.796Z,23.95
2023-08-10T02:21:43.228Z,24.88
2023-08-10T02:24:13.325Z,22.30
2023-08-10T02:26:40.445Z,27.52
2023-08-10T02:29:07.019Z,24.13
2023-08-10T02:31:36.701Z,23.48
2023-08-10T02:34:05.065Z,23.23
2023-08-10T02:36:33.448Z,19.83
2023-08-10T02:39:03.022Z,21.40
2023-08-10T02:41:29.643Z,24.02
2023-08-10T02:43:56.708Z,24.80
2023-08-10T02:46:24.644Z,27.67
2023-08-10T02:48:54.161Z,28.92
2023-08-10T02:51:22.646Z,32.45
2023-08-10T02:53:49.584Z,35.33
2023-08-10T02:56:18.418Z,33.55
2023-08-10T02:58:47.877Z,35.30
2023-08-10T03:01:14.362Z,36.28
2023-08-10T03:03:40.879Z,34.13
2023-08-10T03:06:07.278Z,38.92
2023-08-10T03:08:35.364Z,43.08
2023-08-10T03:11:06.663Z,40.53
2023-08-10T03:13:33.191Z,44.20
2023-08-10T03:16:00.736Z,41.47
2023-08-10T03:18:27.409Z,45.90
2023-08-10T03:20:54.243Z,45.33
2023-08-10T03:23:21.004Z,45.45
2023-08-10T03:25:47.528Z,42.45
2023-08-10T03:28:14.004Z,40.95
2023-08-10T03:30:41.943Z,41.65
2023-08-10T03:33:08.485Z,43.50
2023-08-10T03:35:38.816Z,41.42
2023-08-10T03:38:07.955Z,38.25
2023-08-10T03:40:34.772Z,40.67
2023-08-10T03:43:01.364Z,45.40
2023-08-10T03:45:27.913Z,48.08
2023-08-10T03:47:55.364Z,50.40
2023-08-10T03:50:21.942Z,39.83
2023-08-10T03:52:48.569Z,47.55
2023-08-10T03:55:16.212Z,46.08
2023-08-10T03:57:44.360Z,44.10
2023-08-10T04:00:15.168Z,48.35
2023-08-10T04:02:43.260Z,50.53
2023-08-10T04:05:11.337Z,46.55
2023-08-10T04:07:38.494Z,42.17
2023-08-10T04:10:06.909Z,38.97
2023-08-10T04:12:36.719Z,46.63
2023-08-10T04:15:03.958Z,51.55
2023-08-10T04:17:30.431Z,54.50
2023-08-10T04:19:58.067Z,59.88
2023-08-10T04:22:25.865Z,60.03
2023-08-10T04:24:52.770Z,60.03
2023-08-10T04:27:19.338Z,56.20
2023-08-10T04:29:49.079Z,57.38
2023-08-10T04:32:15.586Z,58.70
2023-08-10T04:34:42.717Z,53.75
2023-08-10T04:37:10.341Z,58.63
2023-08-10T04:39:38.353Z,60.35
2023-08-10T04:42:05.270Z,61.70
2023-08-10T04:44:32.058Z,61.85
2023-08-10T04:46:59.272Z,63.25
2023-08-10T04:49:30.109Z,66.82
2023-08-10T04:51:57.660Z,62.05
2023-08-10T04:54:24.362Z,62.30
2023-08-10T04:56:52.176Z,59.97
2023-08-10T04:59:19.329Z,53.42
2023-08-10T05:01:45.786Z,52.45
2023-08-10T05:04:16.422Z,48.88
2023-08-10T05:06:44.336Z,50.35
2023-08-10T05:09:13.426Z,46.25
2023-08-10T05:11:40.015Z,44.47
2023-08-10T05:14:06.579Z,39.55
2023-08-10T05:16:33.741Z,39.80
2023-08-10T05:19:00.623Z,34.28
2023-08-10T05:21:27.049Z,27.13
2023-08-10T05:23:53.568Z,28.08
2023-08-10T05:26:20.721Z,30.08
2023-08-10T05:28:47.177Z,26.27
2023-08-10T05:31:13.686Z,25.45
2023-08-10T05:33:40.751Z,22.40
2023-08-10T05:36:08.541Z,22.60
2023-08-10T05:38:34.933Z,22.75
2023-08-10T05:41:05.059Z,18.38
2023-08-10T05:43:32.631Z,18.73
2023-08-10T05:45:59.682Z,21.17
2023-08-10T05:48:26.405Z,20.10
2023-08-10T05:50:54.440Z,21.80
2023-08-10T05:53:23.207Z,21.15
2023-08-10T05:55:51.259Z,26.05
2023-08-10T05:58:17.634Z,22.35
2023-08-10T06:00:45.640Z,21.55
2023-08-10T06:03:12.180Z,20.48
2023-08-10T06:05:39.528Z,21.73
2023-08-10T06:08:07.698Z,18.17
2023-08-10T06:10:34.356Z,18.75
2023-08-10T06:13:01.729Z,18.50
2023-08-10T06:15:28.427Z,16.80
2023-08-10T06:17:54.859Z,16.27
2023-08-10T06:20:24.012Z,18.38
2023-08-10T06:22:50.519Z,16.05
2023-08-10T06:25:17.812Z,14.90
2023-08-10T06:27:45.055Z,17.70
2023-08-10T06:30:16.365Z,19.13
2023-08-10T06:32:43.024Z,13.60
2023-08-10T06:35:10.275Z,14.75
2023-08-10T06:37:38.399Z,14.55
2023-08-10T06:40:13.166Z,13.05
2023-08-10T06:42:42.987Z,14.43
2023-08-10T06:45:13.022Z,13.63
2023-08-10T06:47:40.026Z,14.90
2023-08-10T06:50:10.245Z,13.07
2023-08-10T06:52:39.278Z,14.68
2023-08-10T06:55:07.938Z,13.43
2023-08-10T06:57:36.599Z,13.27
2023-08-10T07:02:33.696Z,8.10
2023-08-10T07:05:00.122Z,14.65
2023-08-10T07:07:27.869Z,13.55
2023-08-10T07:09:54.946Z,10.05
2023-08-10T07:12:21.770Z,12.18
2023-08-10T07:14:48.567Z,10.07
2023-08-10T07:17:15.267Z,10.00
2023-08-10T07:19:41.779Z,12.57
2023-08-10T07:22:08.196Z,12.23
2023-08-10T07:24:34.568Z,12.40
2023-08-10T07:27:01.043Z,16.77
2023-08-10T07:29:29.140Z,9.75
2023-08-10T07:32:02.306Z,12.13
2023-08-10T07:34:30.211Z,10.65
2023-08-10T07:36:56.652Z,13.68
2023-08-10T07:39:26.159Z,14.50
2023-08-10T07:41:56.346Z,11.95
2023-08-10T07:44:22.898Z,10.90
2023-08-10T07:46:52.768Z,10.75
2023-08-10T07:49:19.259Z,15.48
2023-08-10T07:51:48.407Z,10.18
2023-08-10T07:54:15.271Z,9.23
2023-08-10T07:56:46.622Z,11.48
2023-08-10T07:59:15.669Z,7.15
2023-08-10T08:01:42.633Z,10.00
2023-08-10T08:04:09.184Z,10.60
2023-08-10T08:06:37.409Z,10.45
2023-08-10T08:09:05.781Z,13.60
2023-08-10T08:11:33.162Z,12.13
2023-08-10T08:14:03.424Z,12.70
2023-08-10T08:16:31.508Z,9.95
2023-08-10T08:18:59.797Z,9.07
2023-08-10T08:21:28.677Z,10.05
2023-08-10T08:23:58.768Z,9.55
2023-08-10T08:26:29.832Z,8.32
2023-08-10T08:28:56.429Z,10.40
2023-08-10T08:31:23.113Z,8.77
2023-08-10T08:33:50.785Z,7.63
2023-08-10T08:36:21.790Z,6.82
2023-08-10T08:38:48.305Z,11.82
2023-08-10T08:41:17.553Z,8.70
2023-08-10T08:43:45.632Z,10.70
2023-08-10T08:46:13.347Z,10.93
2023-08-10T08:48:41.035Z,9.43
2023-08-10T08:51:07.513Z,9.57
2023-08-10T08:53:36.876Z,8.65
2023-08-10T08:56:04.780Z,10.48
2023-08-10T08:58:33.621Z,15.52
2023-08-10T09:01:01.142Z,11.65
2023-08-10T09:03:28.639Z,8.52
2023-08-10T09:06:00.531Z,11.18
2023-08-10T09:08:28.657Z,13.02
2023-08-10T09:10:56.836Z,12.10
2023-08-10T09:13:24.085Z,10.18
2023-08-10T09:16:08.961Z,10.10
2023-08-10T09:18:41.630Z,14.65
2023-08-10T09:21:21.262Z,11.20
2023-08-10T09:23:56.662Z,13.77
2023-08-10T09:26:26.708Z,10.98
2023-08-10T09:28:54.701Z,12.27
2023-08-10T09:31:26.771Z,13.48
2023-08-10T09:33:54.172Z,12.82
2023-08-10T09:36:23.133Z,10.35
2023-08-10T09:38:53.538Z,12.45
2023-08-10T09:41:24.476Z,13.90
2023-08-10T09:43:52.078Z,10.52
2023-08-10T09:46:18.880Z,10.82
2023-08-10T09:48:47.851Z,11.57
2023-08-10T09:51:14.408Z,11.50
2023-08-10T09:53:41.284Z,9.23
2023-08-10T09:56:08.408Z,8.45
2023-08-10T09:58:38.559Z,8.95
2023-08-10T10:01:05.558Z,9.48
2023-08-10T10:03:32.870Z,11.48
2023-08-10T10:05:59.711Z,14.40
2023-08-10T10:08:27.450Z,8.88
2023-08-10T10:10:56.825Z,10.65
2023-08-10T10:13:23.408Z,12.23
2023-08-10T10:15:50.196Z,10.48
2023-08-10T10:18:16.916Z,6.60
2023-08-10T10:20:44.589Z,8.88
2023-08-10T10:23:16.059Z,8.82
2023-08-10T10:25:56.605Z,9.85
2023-08-10T10:28:23.048Z,8.25
2023-08-10T10:30:57.027Z,10.13
2023-08-10T10:33:24.504Z,11.25
2023-08-10T10:38:47.571Z,8.43
2023-08-10T10:41:15.380Z,15.05
2023-08-10T10:43:41.898Z,9.10
2023-08-10T10:46:08.325Z,9.52
2023-08-10T10:48:38.772Z,8.75
2023-08-10T10:51:06.672Z,8.63
2023-08-10T10:53:34.859Z,9.25
2023-08-10T10:56:02.584Z,9.02
2023-08-10T10:58:34.522Z,8.60
2023-08-10T11:01:02.472Z,8.88
2023-08-10T11:03:31.157Z,7.40
2023-08-10T11:05:59.235Z,9.95
2023-08-10T11:08:25.641Z,8.30
2023-08-10T11:10:54.469Z,7.88
2023-08-10T11:13:25.686Z,11.20
2023-08-10T11:15:52.523Z,9.68
2023-08-10T11:18:18.927Z,10.52
2023-08-10T11:20:48.759Z,6.97
2023-08-10T11:23:15.716Z,7.10
2023-08-10T11:25:59.807Z,7.78
2023-08-10T11:28:27.694Z,8.07
2023-08-10T11:31:01.385Z,7.82
2023-08-10T11:33:29.667Z,6.13
2023-08-10T11:35:57.755Z,7.82
2023-08-10T11:38:25.168Z,5.07
2023-08-10T11:40:51.840Z,6.30
2023-08-10T11:43:26.940Z,8.10
2023-08-10T11:45:57.444Z,4.82
2023-08-10T11:48:28.185Z,5.72
2023-08-10T11:51:08.674Z,4.13
2023-08-10T11:53:38.136Z,4.78
2023-08-10T11:56:07.691Z,6.78
2023-08-10T11:58:34.453Z,7.53
2023-08-10T12:01:06.435Z,6.22
2023-08-10T12:03:36.813Z,5.28
2023-08-10T12:06:18.467Z,4.78
2023-08-10T12:08:48.622Z,5.80
2023-08-10T12:11:16.986Z,5.22
2023-08-10T12:13:51.529Z,7.18
2023-08-10T12:16:19.710Z,6.13
2023-08-10T12:18:47.881Z,5.75
2023-08-10T12:21:15.795Z,3.35
2023-08-10T12:23:42.260Z,4.53
2023-08-10T12:26:14.406Z,5.40
2023-08-10T12:28:41.112Z,6.10
2023-08-10T12:31:08.050Z,5.75
2023-08-10T12:33:34.653Z,5.53
2023-08-10T12:36:01.147Z,4.53
2023-08-10T12:38:27.701Z,3.05
2023-08-10T12:40:54.445Z,4.07
2023-08-10T12:43:23.001Z,3.03
2023-08-10T12:45:50.909Z,3.70
2023-08-10T12:48:17.436Z,3.65
2023-08-10T12:50:46.518Z,4.15
2023-08-10T12:53:13.069Z,5.55
2023-08-10T12:55:39.652Z,6.13
2023-08-10T12:58:06.536Z,6.63
2023-08-10T13:00:33.265Z,3.40
2023-08-10T13:03:01.554Z,4.20
2023-08-10T13:05:28.319Z,5.13
2023-08-10T13:07:55.073Z,4.45
2023-08-10T13:10:23.405Z,5.70
2023-08-10T13:12:49.857Z,2.85
2023-08-10T13:15:16.410Z,2.35
2023-08-10T13:17:42.991Z,3.97
2023-08-10T13:20:10.157Z,2.85
2023-08-10T13:22:37.946Z,4.28
2023-08-10T13:25:08.762Z,3.88
2023-08-10T13:27:35.233Z,3.45
2023-08-10T13:30:02.289Z,4.95
2023-08-10T13:32:29.856Z,5.13
2023-08-10T13:34:59.096Z,3.53
2023-08-10T13:37:26.046Z,5.63
2023-08-10T13:39:52.752Z,3.53
2023-08-10T13:42:19.237Z,6.50
2023-08-10T13:44:46.460Z,8.18
2023-08-10T13:47:13.811Z,4.85
2023-08-10T13:49:53.530Z,5.53
2023-08-10T13:52:23.158Z,3.63
2023-08-10T13:54:49.561Z,3.60
2023-08-10T13:57:19.927Z,4.53
2023-08-10T13:59:48.780Z,2.88
2023-08-10T14:02:16.185Z,6.60
2023-08-10T14:04:43.372Z,3.70
2023-08-10T14:07:10.090Z,3.83
2023-08-10T14:09:39.966Z,6.53
2023-08-10T14:12:09.728Z,4.43
2023-08-10T14:14:37.647Z,6.47
2023-08-10T14:17:09.577Z,5.00
2023-08-10T14:19:41.505Z,4.22
2023-08-10T14:22:08.276Z,8.35
2023-08-10T14:24:35.697Z,4.78
2023-08-10T14:27:02.236Z,5.15
2023-08-10T14:29:29.044Z,7.25
2023-08-10T14:31:56.261Z,5.03
2023-08-10T14:34:25.817Z,4.38
2023-08-10T14:36:53.683Z,6.43
2023-08-10T14:39:20.825Z,5.50
2023-08-10T14:41:58.430Z,7.80
2023-08-10T14:44:24.965Z,5.10
2023-08-10T14:46:52.977Z,4.75
2023-08-10T14:49:29.702Z,3.92
2023-08-10T14:51:58.228Z,4.05
2023-08-10T14:54:25.628Z,4.18
2023-08-10T14:56:52.676Z,2.20
2023-08-10T14:59:19.655Z,3.17
2023-08-10T15:01:50.937Z,3.40
2023-08-10T15:04:18.271Z,5.47
2023-08-10T15:06:51.320Z,5.00
2023-08-10T15:09:18.364Z,5.10
2023-08-10T15:11:45.563Z,4.88
2023-08-10T15:14:13.019Z,2.63
2023-08-10T15:16:39.773Z,5.07
2023-08-10T15:19:07.979Z,4.97
2023-08-10T15:21:35.634Z,1.80
2023-08-10T15:24:06.628Z,2.67
2023-08-10T15:26:34.180Z,4.10
2023-08-10T15:29:03.786Z,3.25
2023-08-10T15:31:32.104Z,2.28
2023-08-10T15:33:58.818Z,3.53
2023-08-10T15:36:25.512Z,4.22
2023-08-10T15:38:52.890Z,3.67
2023-08-10T15:41:19.734Z,2.65
2023-08-10T15:43:46.270Z,3.40
2023-08-10T15:46:17.944Z,3.47
2023-08-10T15:48:47.908Z,5.78
2023-08-10T15:51:14.757Z,3.47
2023-08-10T15:53:41.312Z,4.50
2023-08-10T15:56:12.581Z,2.22
2023-08-10T15:58:39.771Z,2.67
2023-08-10T16:01:07.281Z,6.82
2023-08-10T16:03:37.042Z,5.35
2023-08-10T16:06:04.923Z,3.33
2023-08-10T16:08:31.458Z,3.92
2023-08-10T16:11:01.313Z,2.88
2023-08-10T16:13:27.968Z,4.18
2023-08-10T16:15:57.515Z,5.15
2023-08-10T16:18:24.409Z,4.47
2023-08-10T16:20:52.076Z,3.80
2023-08-10T16:23:20.901Z,3.78
2023-08-10T16:25:55.285Z,1.90
2023-08-10T16:28:27.798Z,4.57
2023-08-10T16:30:54.410Z,3.65
2023-08-10T16:33:21.111Z,4.18
2023-08-10T16:35:48.836Z,5.68
2023-08-10T16:38:15.514Z,4.82
2023-08-10T16:40:43.058Z,6.30
2023-08-10T16:43:10.283Z,3.10
2023-08-10T16:45:38.020Z,3.50
2023-08-10T16:48:08.781Z,2.45
2023-08-10T16:50:39.366Z,9.25
2023-08-10T16:53:06.021Z,4.57
2023-08-10T16:55:32.728Z,4.75
2023-08-10T16:58:06.201Z,2.97
2023-08-10T17:02:59.702Z,4.05
2023-08-10T17:05:40.004Z,4.75
2023-08-10T17:08:08.592Z,3.78
2023-08-10T17:10:36.175Z,3.17
2023-08-10T17:13:03.106Z,4.22
2023-08-10T17:15:31.048Z,3.45
2023-08-10T17:18:05.345Z,8.10
2023-08-10T17:20:35.185Z,2.25
2023-08-10T17:23:02.816Z,4.93
2023-08-10T17:25:30.547Z,3.63
2023-08-10T17:27:57.813Z,7.22
2023-08-10T17:30:28.546Z,4.05
2023-08-10T17:32:55.706Z,9.80
2023-08-10T17:35:22.383Z,5.40
2023-08-10T17:37:48.862Z,3.78
2023-08-10T17:40:15.692Z,3.70
2023-08-10T17:42:42.333Z,3.35
2023-08-10T17:45:11.041Z,6.70
2023-08-10T17:47:40.568Z,5.15
2023-08-10T17:50:08.931Z,6.32
2023-08-10T17:52:37.686Z,5.32
2023-08-10T17:55:06.096Z,4.78
2023-08-10T17:57:34.338Z,4.63
2023-08-10T18:00:12.357Z,3.75
2023-08-10T18:02:39.614Z,7.68
2023-08-10T18:05:08.988Z,8.50
2023-08-10T18:07:37.703Z,3.50
2023-08-10T18:10:05.123Z,3.67
2023-08-10T18:12:32.538Z,4.20
2023-08-10T18:15:00.487Z,3.90
2023-08-10T18:17:29.045Z,4.28
2023-08-10T18:19:55.693Z,4.20
2023-08-10T18:22:22.229Z,3.42
2023-08-10T18:24:51.541Z,3.88
2023-08-10T18:27:19.391Z,3.00
2023-08-10T18:29:46.945Z,3.55
2023-08-10T18:32:15.532Z,3.47
2023-08-10T18:34:44.840Z,3.10
2023-08-10T18:37:11.581Z,4.60
2023-08-10T18:39:39.190Z,3.35
2023-08-10T18:42:07.365Z,4.53
2023-08-10T18:44:34.702Z,3.47
2023-08-10T18:47:01.328Z,2.97
2023-08-10T18:49:28.070Z,5.32
2023-08-10T18:51:54.669Z,4.15
2023-08-10T18:54:21.550Z,3.13
2023-08-10T18:59:34.217Z,4.53
2023-08-10T19:02:02.515Z,4.18
2023-08-10T19:04:30.482Z,3.67
2023-08-10T19:07:09.537Z,6.45
2023-08-10T19:09:38.245Z,13.63
2023-08-10T19:12:12.575Z,4.95
2023-08-10T19:14:42.357Z,4.38
2023-08-10T19:17:09.136Z,5.50
2023-08-10T19:19:35.766Z,6.32
2023-08-10T19:22:04.667Z,7.00
2023-08-10T19:24:31.489Z,4.88
2023-08-10T19:27:05.295Z,9.10
2023-08-10T19:29:32.441Z,9.13
2023-08-10T19:31:59.514Z,10.27
2023-08-10T19:34:26.928Z,8.25
2023-08-10T19:36:54.171Z,7.93
2023-08-10T19:39:22.857Z,7.07
2023-08-10T19:41:50.651Z,7.38
2023-08-10T19:44:22.419Z,7.15
2023-08-10T19:46:49.740Z,6.95
2023-08-10T19:49:24.774Z,6.10
2023-08-10T19:51:53.908Z,7.18
2023-08-10T19:54:22.378Z,10.30
2023-08-10T19:56:49.432Z,4.00
2023-08-10T19:59:16.352Z,7.97
2023-08-10T20:01:42.886Z,5.00
2023-08-10T20:04:12.420Z,4.93
2023-08-10T20:06:39.239Z,9.18
2023-08-10T20:09:07.029Z,7.10
2023-08-10T20:11:33.732Z,9.57
2023-08-10T20:14:01.836Z,6.38
2023-08-10T20:16:30.948Z,8.43
2023-08-10T20:18:57.561Z,7.45
2023-08-10T20:21:27.655Z,7.85
2023-08-10T20:23:54.735Z,6.45
2023-08-10T20:26:21.735Z,8.05
2023-08-10T20:28:50.544Z,12.73
2023-08-10T20:31:23.000Z,4.93
2023-08-10T20:33:51.900Z,5.38
2023-08-10T20:36:20.052Z,5.40
2023-08-10T20:38:47.572Z,5.15
2023-08-10T20:41:16.938Z,4.70
2023-08-10T20:43:46.042Z,8.23
2023-08-10T20:46:23.027Z,5.97
2023-08-10T20:48:49.972Z,6.00
2023-08-10T20:51:16.619Z,6.53
2023-08-10T20:53:46.195Z,7.95
2023-08-10T20:56:13.583Z,6.50
2023-08-10T20:58:45.241Z,6.13
2023-08-10T21:01:15.884Z,8.00
2023-08-10T21:03:46.236Z,6.35
2023-08-10T21:06:14.241Z,12.48
2023-08-10T21:08:42.068Z,7.22
2023-08-10T21:11:12.446Z,9.02
2023-08-10T21:13:43.083Z,6.07
2023-08-10T21:16:12.381Z,5.32
2023-08-10T21:18:39.466Z,5.38
2023-08-10T21:21:15.868Z,6.68
2023-08-10T21:23:43.537Z,5.32
2023-08-10T21:26:11.004Z,5.45
2023-08-10T21:28:38.145Z,6.18
2023-08-10T21:31:05.549Z,5.30
2023-08-10T21:33:35.402Z,7.28
2023-08-10T21:36:02.992Z,7.05
2023-08-10T21:38:29.635Z,9.90
2023-08-10T21:40:57.563Z,5.50
2023-08-10T21:43:27.174Z,7.10
2023-08-10T21:45:54.106Z,8.40
2023-08-10T21:48:26.053Z,5.95
2023-08-10T21:50:58.919Z,6.95
2023-08-10T21:53:26.750Z,6.25
2023-08-10T21:55:53.512Z,6.85
2023-08-10T21:58:20.232Z,8.50
2023-08-10T22:00:47.573Z,4.80
2023-08-10T22:03:16.753Z,5.55
2023-08-10T22:05:48.578Z,6.47
2023-08-10T22:08:16.919Z,7.22
2023-08-10T22:10:48.548Z,5.57
2023-08-10T22:13:18.059Z,6.55
2023-08-10T22:15:47.419Z,8.38
2023-08-10T22:18:18.424Z,9.20
2023-08-10T22:20:49.252Z,4.57
2023-08-10T22:23:19.802Z,7.15
2023-08-10T22:25:46.386Z,9.95
2023-08-10T22:28:15.184Z,6.53
2023-08-10T22:30:43.345Z,6.20
2023-08-10T22:33:11.803Z,6.53
2023-08-10T22:35:39.086Z,6.30
2023-08-10T22:38:05.923Z,6.57
2023-08-10T22:40:32.655Z,10.65
2023-08-10T22:42:59.223Z,10.68
2023-08-10T22:45:25.960Z,6.95
2023-08-10T22:47:53.132Z,8.35
2023-08-10T22:50:22.441Z,7.30
2023-08-10T22:52:49.361Z,6.15
2023-08-10T22:55:18.459Z,15.82
2023-08-10T22:57:45.501Z,6.72
2023-08-10T23:00:14.575Z,5.68
2023-08-10T23:02:44.677Z,6.35
2023-08-10T23:05:12.907Z,9.93
2023-08-10T23:07:40.728Z,5.50
2023-08-10T23:10:08.149Z,9.55
2023-08-10T23:12:37.478Z,8.48
2023-08-10T23:15:07.147Z,7.93
2023-08-10T23:17:33.885Z,7.28
2023-08-10T23:20:03.880Z,8.45
2023-08-10T23:22:31.338Z,7.80
2023-08-10T23:24:58.993Z,8.93
2023-08-10T23:27:34.907Z,6.82
2023-08-10T23:30:05.624Z,8.23
2023-08-10T23:32:33.060Z,5.97
2023-08-10T23:35:00.658Z,6.07
2023-08-10T23:37:27.629Z,10.68
2023-08-10T23:39:55.291Z,7.82
2023-08-10T23:42:24.503Z,6.40
2023-08-10T23:44:51.048Z,8.73
2023-08-10T23:47:18.650Z,6.05
2023-08-10T23:52:38.875Z,9.02
2023-08-10T23:55:11.708Z,7.63
2023-08-10T23:57:39.150Z,7.03
